Terminal Aerodrome Forecast
Issued by NWS

Home | Current Version | Previous Version | Text Only | Print | Product List | Glossary On
Versions: 1 2 3 4 5 6 7 8 9 10 11 12 13 14 15 16 17 18 19 20 21 22 23 24 25 26
000
FTUS41 KBGM 240500
TAFELM
TAF
KELM 240539Z 2406/2506 15008KT 5SM -RA BR OVC015 WS020/16050KT
     FM241100 20010KT P6SM OVC025 WS020/19040KT
     FM241600 22015G25KT P6SM BKN045 WS020/20040KT
     FM250000 25012KT P6SM BKN040=

USA.gov is the U.S. government's official web portal to all federal, state and local government web resources and services.